sensor_id;sensor_type;location;lat;lon;timestamp;pressure;altitude;pressure_sealevel;temperature;humidity
56681;BME280;42558;52.388;13.390;2023-05-08T00:00:19;102201.48;;;6.28;95.13
56681;BME280;42558;52.388;13.390;2023-05-08T00:02:47;102199.17;;;6.27;96.14
56681;BME280;42558;52.388;13.390;2023-05-08T00:05:16;102195.01;;;6.31;95.50
56681;BME280;42558;52.388;13.390;2023-05-08T00:07:44;102194.85;;;6.28;95.16
56681;BME280;42558;52.388;13.390;2023-05-08T00:10:12;102192.09;;;6.25;95.77
56681;BME280;42558;52.388;13.390;2023-05-08T00:12:41;102199.30;;;6.23;95.67
56681;BME280;42558;52.388;13.390;2023-05-08T00:15:09;102195.83;;;6.11;95.97
56681;BME280;42558;52.388;13.390;2023-05-08T00:17:38;102198.17;;;6.03;96.35
56681;BME280;42558;52.388;13.390;2023-05-08T00:20:07;102197.50;;;5.94;97.39
56681;BME280;42558;52.388;13.390;2023-05-08T00:22:35;102199.63;;;5.94;97.80
56681;BME280;42558;52.388;13.390;2023-05-08T00:25:04;102201.02;;;5.94;97.71
56681;BME280;42558;52.388;13.390;2023-05-08T00:27:31;102204.15;;;5.97;98.00
56681;BME280;42558;52.388;13.390;2023-05-08T00:30:00;102209.36;;;5.91;97.41
56681;BME280;42558;52.388;13.390;2023-05-08T00:32:28;102209.08;;;5.80;97.84
56681;BME280;42558;52.388;13.390;2023-05-08T00:34:56;102209.20;;;5.69;98.13
56681;BME280;42558;52.388;13.390;2023-05-08T00:37:25;102210.86;;;5.68;98.88
56681;BME280;42558;52.388;13.390;2023-05-08T00:39:53;102209.39;;;5.73;99.43
56681;BME280;42558;52.388;13.390;2023-05-08T00:42:22;102209.15;;;5.68;99.31
56681;BME280;42558;52.388;13.390;2023-05-08T00:44:51;102212.67;;;5.72;99.60
56681;BME280;42558;52.388;13.390;2023-05-08T00:47:20;102213.07;;;5.64;99.50
56681;BME280;42558;52.388;13.390;2023-05-08T00:49:51;102214.54;;;5.65;99.96
56681;BME280;42558;52.388;13.390;2023-05-08T00:52:19;102211.56;;;5.59;99.98
56681;BME280;42558;52.388;13.390;2023-05-08T00:54:48;102214.05;;;5.50;99.99
56681;BME280;42558;52.388;13.390;2023-05-08T00:57:15;102214.19;;;5.44;100.00
56681;BME280;42558;52.388;13.390;2023-05-08T00:59:44;102215.11;;;5.51;100.00
56681;BME280;42558;52.388;13.390;2023-05-08T01:02:16;102214.46;;;5.52;100.00
56681;BME280;42558;52.388;13.390;2023-05-08T01:04:47;102217.83;;;5.43;100.00
56681;BME280;42558;52.388;13.390;2023-05-08T01:07:17;102218.30;;;5.49;100.00
56681;BME280;42558;52.388;13.390;2023-05-08T01:09:48;102219.55;;;5.46;100.00
56681;BME280;42558;52.388;13.390;2023-05-08T01:15:19;102223.20;;;5.46;100.00
56681;BME280;42558;52.388;13.390;2023-05-08T01:21:15;102220.24;;;5.34;100.00
56681;BME280;42558;52.388;13.390;2023-05-08T01:32:18;102222.92;;;5.17;100.00
56681;BME280;42558;52.388;13.390;2023-05-08T01:35:20;102228.61;;;5.16;100.00
56681;BME280;42558;52.388;13.390;2023-05-08T01:38:09;102231.15;;;5.18;100.00
56681;BME280;42558;52.388;13.390;2023-05-08T01:40:59;102230.30;;;5.09;100.00
56681;BME280;42558;52.388;13.390;2023-05-08T01:43:51;102229.90;;;5.11;100.00
56681;BME280;42558;52.388;13.390;2023-05-08T01:46:26;102230.27;;;5.15;100.00
56681;BME280;42558;52.388;13.390;2023-05-08T01:48:59;102232.33;;;5.08;100.00
56681;BME280;42558;52.388;13.390;2023-05-08T01:51:41;102232.75;;;4.98;100.00
56681;BME280;42558;52.388;13.390;2023-05-08T01:54:15;102226.98;;;5.00;100.00
56681;BME280;42558;52.388;13.390;2023-05-08T01:56:51;102226.77;;;5.00;100.00
56681;BME280;42558;52.388;13.390;2023-05-08T01:59:25;102228.92;;;4.95;100.00
56681;BME280;42558;52.388;13.390;2023-05-08T02:01:59;102228.83;;;4.91;100.00
56681;BME280;42558;52.388;13.390;2023-05-08T02:04:32;102232.11;;;4.87;100.00
56681;BME280;42558;52.388;13.390;2023-05-08T02:07:04;102232.23;;;4.83;100.00
56681;BME280;42558;52.388;13.390;2023-05-08T02:09:35;102228.14;;;4.77;100.00
56681;BME280;42558;52.388;13.390;2023-05-08T02:12:09;102230.38;;;4.67;100.00
56681;BME280;42558;52.388;13.390;2023-05-08T02:14:46;102228.71;;;4.63;100.00
56681;BME280;42558;52.388;13.390;2023-05-08T02:17:18;102233.69;;;4.56;100.00
56681;BME280;42558;52.388;13.390;2023-05-08T02:19:51;102232.17;;;4.51;100.00
56681;BME280;42558;52.388;13.390;2023-05-08T02:22:24;102230.86;;;4.55;100.00
56681;BME280;42558;52.388;13.390;2023-05-08T02:24:56;102231.98;;;4.51;100.00
56681;BME280;42558;52.388;13.390;2023-05-08T02:27:29;102226.45;;;4.49;100.00
56681;BME280;42558;52.388;13.390;2023-05-08T02:30:00;102226.54;;;4.47;100.00
56681;BME280;42558;52.388;13.390;2023-05-08T02:32:31;102233.89;;;4.51;100.00
56681;BME280;42558;52.388;13.390;2023-05-08T02:35:04;102229.20;;;4.62;100.00
56681;BME280;42558;52.388;13.390;2023-05-08T02:37:35;102230.95;;;4.59;100.00
56681;BME280;42558;52.388;13.390;2023-05-08T02:40:05;102232.02;;;4.57;100.00
56681;BME280;42558;52.388;13.390;2023-05-08T02:42:36;102233.33;;;4.53;100.00
56681;BME280;42558;52.388;13.390;2023-05-08T02:45:07;102227.19;;;4.52;100.00
56681;BME280;42558;52.388;13.390;2023-05-08T02:48:04;102227.92;;;4.53;100.00
56681;BME280;42558;52.388;13.390;2023-05-08T02:50:56;102229.04;;;4.51;100.00
56681;BME280;42558;52.388;13.390;2023-05-08T02:53:54;102228.20;;;4.60;100.00
56681;BME280;42558;52.388;13.390;2023-05-08T02:56:36;102230.11;;;4.66;100.00
56681;BME280;42558;52.388;13.390;2023-05-08T02:59:26;102228.77;;;4.58;100.00
56681;BME280;42558;52.388;13.390;2023-05-08T03:02:21;102227.98;;;4.45;100.00
56681;BME280;42558;52.388;13.390;2023-05-08T03:05:07;102233.15;;;4.47;100.00
56681;BME280;42558;52.388;13.390;2023-05-08T03:07:41;102230.00;;;4.50;100.00
56681;BME280;42558;52.388;13.390;2023-05-08T03:10:14;102231.30;;;4.54;100.00
56681;BME280;42558;52.388;13.390;2023-05-08T03:12:50;102229.73;;;4.56;100.00
56681;BME280;42558;52.388;13.390;2023-05-08T03:15:33;102228.86;;;4.54;100.00
56681;BME280;42558;52.388;13.390;2023-05-08T03:18:15;102230.66;;;4.49;100.00
56681;BME280;42558;52.388;13.390;2023-05-08T03:20:53;102228.95;;;4.58;100.00
56681;BME280;42558;52.388;13.390;2023-05-08T03:23:28;102227.79;;;4.56;100.00
56681;BME280;42558;52.388;13.390;2023-05-08T03:25:58;102229.99;;;4.52;100.00
56681;BME280;42558;52.388;13.390;2023-05-08T03:28:29;102232.12;;;4.50;100.00
56681;BME280;42558;52.388;13.390;2023-05-08T03:31:00;102234.13;;;4.49;100.00
56681;BME280;42558;52.388;13.390;2023-05-08T03:33:31;102238.56;;;4.45;100.00
56681;BME280;42558;52.388;13.390;2023-05-08T03:36:01;102237.33;;;4.44;100.00
56681;BME280;42558;52.388;13.390;2023-05-08T03:38:33;102239.28;;;4.34;100.00
56681;BME280;42558;52.388;13.390;2023-05-08T03:41:03;102236.66;;;4.25;100.00
56681;BME280;42558;52.388;13.390;2023-05-08T03:43:35;102239.52;;;4.27;100.00
56681;BME280;42558;52.388;13.390;2023-05-08T03:46:05;102242.44;;;4.29;100.00
56681;BME280;42558;52.388;13.390;2023-05-08T03:48:38;102241.80;;;4.19;100.00
56681;BME280;42558;52.388;13.390;2023-05-08T03:51:09;102241.55;;;4.18;100.00
56681;BME280;42558;52.388;13.390;2023-05-08T03:53:38;102244.34;;;4.15;100.00
56681;BME280;42558;52.388;13.390;2023-05-08T03:56:05;102239.22;;;4.14;100.00
56681;BME280;42558;52.388;13.390;2023-05-08T03:59:09;102242.26;;;4.15;100.00
56681;BME280;42558;52.388;13.390;2023-05-08T04:02:40;102243.18;;;4.16;100.00
56681;BME280;42558;52.388;13.390;2023-05-08T04:04:44;102243.34;;;4.18;100.00
56681;BME280;42558;52.388;13.390;2023-05-08T04:07:30;102242.38;;;4.22;100.00
56681;BME280;42558;52.388;13.390;2023-05-08T04:10:16;102241.64;;;4.24;100.00
56681;BME280;42558;52.388;13.390;2023-05-08T04:13:17;102243.39;;;4.25;100.00
56681;BME280;42558;52.388;13.390;2023-05-08T04:16:00;102244.85;;;4.26;100.00
56681;BME280;42558;52.388;13.390;2023-05-08T04:18:36;102245.61;;;4.29;100.00
56681;BME280;42558;52.388;13.390;2023-05-08T04:21:14;102247.11;;;4.31;100.00
56681;BME280;42558;52.388;13.390;2023-05-08T04:23:49;102252.03;;;4.32;100.00
56681;BME280;42558;52.388;13.390;2023-05-08T04:26:18;102254.71;;;4.33;100.00
56681;BME280;42558;52.388;13.390;2023-05-08T04:28:47;102253.27;;;4.37;100.00
56681;BME280;42558;52.388;13.390;2023-05-08T04:31:16;102256.39;;;4.43;100.00
56681;BME280;42558;52.388;13.390;2023-05-08T04:33:46;102255.34;;;4.46;100.00
56681;BME280;42558;52.388;13.390;2023-05-08T04:36:14;102257.58;;;4.54;100.00
56681;BME280;42558;52.388;13.390;2023-05-08T04:38:43;102264.31;;;4.61;100.00
56681;BME280;42558;52.388;13.390;2023-05-08T04:41:11;102266.48;;;4.68;100.00
56681;BME280;42558;52.388;13.390;2023-05-08T04:43:40;102264.27;;;4.75;100.00
56681;BME280;42558;52.388;13.390;2023-05-08T04:46:08;102264.79;;;4.83;100.00
56681;BME280;42558;52.388;13.390;2023-05-08T04:48:37;102270.16;;;5.00;100.00
56681;BME280;42558;52.388;13.390;2023-05-08T04:51:05;102274.03;;;5.12;100.00
56681;BME280;42558;52.388;13.390;2023-05-08T04:53:33;102280.19;;;5.15;100.00
56681;BME280;42558;52.388;13.390;2023-05-08T04:56:02;102283.08;;;5.24;100.00
56681;BME280;42558;52.388;13.390;2023-05-08T04:58:30;102286.77;;;5.33;100.00
56681;BME280;42558;52.388;13.390;2023-05-08T05:01:03;102288.40;;;5.40;99.97
56681;BME280;42558;52.388;13.390;2023-05-08T05:03:33;102289.36;;;5.47;99.96
56681;BME280;42558;52.388;13.390;2023-05-08T05:06:04;102284.48;;;5.53;99.31
56681;BME280;42558;52.388;13.390;2023-05-08T05:08:34;102289.34;;;5.58;98.93
56681;BME280;42558;52.388;13.390;2023-05-08T05:11:03;102289.61;;;5.63;98.21
56681;BME280;42558;52.388;13.390;2023-05-08T05:13:33;102292.77;;;5.66;98.63
56681;BME280;42558;52.388;13.390;2023-05-08T05:16:03;102294.96;;;5.86;97.65
56681;BME280;42558;52.388;13.390;2023-05-08T05:18:34;102298.05;;;5.91;96.97
56681;BME280;42558;52.388;13.390;2023-05-08T05:21:03;102302.81;;;6.04;96.91
56681;BME280;42558;52.388;13.390;2023-05-08T05:23:33;102304.73;;;6.13;95.76
56681;BME280;42558;52.388;13.390;2023-05-08T05:26:03;102308.45;;;6.14;94.80
56681;BME280;42558;52.388;13.390;2023-05-08T05:28:33;102306.84;;;6.29;94.27
56681;BME280;42558;52.388;13.390;2023-05-08T05:31:03;102305.58;;;6.35;93.87
56681;BME280;42558;52.388;13.390;2023-05-08T05:33:33;102308.48;;;6.52;92.97
56681;BME280;42558;52.388;13.390;2023-05-08T05:36:03;102308.99;;;6.78;92.53
56681;BME280;42558;52.388;13.390;2023-05-08T05:38:33;102308.86;;;6.95;91.05
56681;BME280;42558;52.388;13.390;2023-05-08T05:41:03;102313.64;;;6.90;90.27
56681;BME280;42558;52.388;13.390;2023-05-08T05:43:33;102308.47;;;6.97;90.14
56681;BME280;42558;52.388;13.390;2023-05-08T05:46:05;102307.41;;;7.24;87.67
56681;BME280;42558;52.388;13.390;2023-05-08T05:48:35;102304.65;;;7.28;85.54
56681;BME280;42558;52.388;13.390;2023-05-08T05:51:05;102301.83;;;7.34;84.28
56681;BME280;42558;52.388;13.390;2023-05-08T05:53:35;102307.58;;;7.44;83.10
56681;BME280;42558;52.388;13.390;2023-05-08T05:56:05;102310.66;;;7.46;82.50
56681;BME280;42558;52.388;13.390;2023-05-08T05:58:35;102313.36;;;7.51;82.72
56681;BME280;42558;52.388;13.390;2023-05-08T06:01:05;102318.91;;;7.57;82.06
56681;BME280;42558;52.388;13.390;2023-05-08T06:03:35;102319.52;;;7.76;81.55
56681;BME280;42558;52.388;13.390;2023-05-08T06:06:05;102312.38;;;7.62;80.98
56681;BME280;42558;52.388;13.390;2023-05-08T06:08:35;102315.83;;;7.75;81.28
56681;BME280;42558;52.388;13.390;2023-05-08T06:11:04;102308.61;;;8.10;80.61
56681;BME280;42558;52.388;13.390;2023-05-08T06:13:34;102308.50;;;8.15;79.67
56681;BME280;42558;52.388;13.390;2023-05-08T06:16:03;102305.19;;;8.40;78.63
56681;BME280;42558;52.388;13.390;2023-05-08T06:18:31;102308.94;;;8.57;78.45
56681;BME280;42558;52.388;13.390;2023-05-08T06:20:59;102307.81;;;8.55;77.81
56681;BME280;42558;52.388;13.390;2023-05-08T06:23:28;102310.06;;;8.70;76.56
56681;BME280;42558;52.388;13.390;2023-05-08T06:25:56;102308.23;;;8.95;76.33
56681;BME280;42558;52.388;13.390;2023-05-08T06:28:25;102309.15;;;9.12;75.22
56681;BME280;42558;52.388;13.390;2023-05-08T06:30:53;102310.96;;;8.82;75.62
56681;BME280;42558;52.388;13.390;2023-05-08T06:33:21;102306.88;;;9.16;74.52
56681;BME280;42558;52.388;13.390;2023-05-08T06:35:53;102309.54;;;9.65;73.42
56681;BME280;42558;52.388;13.390;2023-05-08T06:38:21;102309.67;;;9.19;72.11
56681;BME280;42558;52.388;13.390;2023-05-08T06:40:50;102311.83;;;9.25;72.98
56681;BME280;42558;52.388;13.390;2023-05-08T06:43:18;102308.85;;;9.91;72.07
56681;BME280;42558;52.388;13.390;2023-05-08T06:45:47;102308.20;;;9.96;70.37
56681;BME280;42558;52.388;13.390;2023-05-08T06:48:15;102309.70;;;9.98;69.17
56681;BME280;42558;52.388;13.390;2023-05-08T06:50:43;102311.73;;;10.10;69.02
56681;BME280;42558;52.388;13.390;2023-05-08T06:53:12;102311.94;;;10.59;66.78
56681;BME280;42558;52.388;13.390;2023-05-08T06:55:43;102312.45;;;10.14;67.86
56681;BME280;42558;52.388;13.390;2023-05-08T06:58:13;102310.65;;;10.57;67.95
56681;BME280;42558;52.388;13.390;2023-05-08T07:00:43;102314.18;;;10.35;65.21
56681;BME280;42558;52.388;13.390;2023-05-08T07:03:13;102312.77;;;10.00;65.46
56681;BME280;42558;52.388;13.390;2023-05-08T07:05:43;102314.93;;;9.93;65.94
56681;BME280;42558;52.388;13.390;2023-05-08T07:08:13;102316.39;;;10.12;64.74
56681;BME280;42558;52.388;13.390;2023-05-08T07:10:43;102312.91;;;10.29;65.07
56681;BME280;42558;52.388;13.390;2023-05-08T07:13:13;102311.12;;;10.69;63.49
56681;BME280;42558;52.388;13.390;2023-05-08T07:15:42;102311.09;;;10.82;63.05
56681;BME280;42558;52.388;13.390;2023-05-08T07:18:12;102311.10;;;10.87;63.26
56681;BME280;42558;52.388;13.390;2023-05-08T07:20:42;102302.85;;;11.07;63.37
56681;BME280;42558;52.388;13.390;2023-05-08T07:23:12;102305.02;;;11.13;61.48
56681;BME280;42558;52.388;13.390;2023-05-08T07:25:42;102307.09;;;11.17;60.52
56681;BME280;42558;52.388;13.390;2023-05-08T07:28:12;102307.38;;;11.16;59.87
56681;BME280;42558;52.388;13.390;2023-05-08T07:30:42;102310.21;;;11.31;57.90
56681;BME280;42558;52.388;13.390;2023-05-08T07:33:12;102301.66;;;11.48;57.17
56681;BME280;42558;52.388;13.390;2023-05-08T07:35:42;102299.77;;;11.85;56.95
56681;BME280;42558;52.388;13.390;2023-05-08T07:38:11;102305.98;;;12.08;55.70
56681;BME280;42558;52.388;13.390;2023-05-08T07:40:41;102298.98;;;11.88;56.86
56681;BME280;42558;52.388;13.390;2023-05-08T07:43:11;102300.55;;;11.66;55.69
56681;BME280;42558;52.388;13.390;2023-05-08T07:45:42;102302.34;;;11.73;55.55
56681;BME280;42558;52.388;13.390;2023-05-08T07:48:11;102297.73;;;12.03;54.46
56681;BME280;42558;52.388;13.390;2023-05-08T07:50:41;102294.05;;;12.44;55.36
56681;BME280;42558;52.388;13.390;2023-05-08T07:53:11;102301.25;;;12.60;53.44
56681;BME280;42558;52.388;13.390;2023-05-08T07:55:41;102294.14;;;12.70;52.68
56681;BME280;42558;52.388;13.390;2023-05-08T07:58:11;102296.83;;;12.71;52.74
56681;BME280;42558;52.388;13.390;2023-05-08T08:00:41;102289.06;;;13.14;52.18
56681;BME280;42558;52.388;13.390;2023-05-08T08:03:11;102288.30;;;13.06;50.18
56681;BME280;42558;52.388;13.390;2023-05-08T08:05:41;102294.48;;;12.93;50.81
56681;BME280;42558;52.388;13.390;2023-05-08T08:08:11;102293.14;;;12.96;50.43
56681;BME280;42558;52.388;13.390;2023-05-08T08:10:41;102291.63;;;12.68;50.11
56681;BME280;42558;52.388;13.390;2023-05-08T08:13:11;102288.39;;;13.27;50.84
56681;BME280;42558;52.388;13.390;2023-05-08T08:15:40;102284.23;;;13.29;48.47
56681;BME280;42558;52.388;13.390;2023-05-08T08:18:10;102280.77;;;13.27;48.00
56681;BME280;42558;52.388;13.390;2023-05-08T08:20:40;102277.50;;;13.49;48.08
56681;BME280;42558;52.388;13.390;2023-05-08T08:23:10;102282.45;;;13.56;47.08
56681;BME280;42558;52.388;13.390;2023-05-08T08:25:40;102271.11;;;13.23;47.21
56681;BME280;42558;52.388;13.390;2023-05-08T08:28:09;102274.28;;;13.98;47.27
56681;BME280;42558;52.388;13.390;2023-05-08T08:30:39;102275.98;;;13.66;47.03
56681;BME280;42558;52.388;13.390;2023-05-08T08:33:09;102275.74;;;13.57;46.79
56681;BME280;42558;52.388;13.390;2023-05-08T08:35:39;102278.05;;;13.24;46.86
56681;BME280;42558;52.388;13.390;2023-05-08T08:38:09;102277.92;;;13.52;46.61
56681;BME280;42558;52.388;13.390;2023-05-08T08:40:40;102274.75;;;14.10;45.91
56681;BME280;42558;52.388;13.390;2023-05-08T08:43:09;102277.13;;;14.29;45.11
56681;BME280;42558;52.388;13.390;2023-05-08T08:45:39;102280.73;;;13.88;44.68
56681;BME280;42558;52.388;13.390;2023-05-08T08:48:10;102278.71;;;13.62;45.40
56681;BME280;42558;52.388;13.390;2023-05-08T08:50:42;102278.14;;;13.75;45.14
56681;BME280;42558;52.388;13.390;2023-05-08T08:53:26;102277.34;;;13.85;45.38
56681;BME280;42558;52.388;13.390;2023-05-08T08:56:00;102274.26;;;13.96;43.96
56681;BME280;42558;52.388;13.390;2023-05-08T08:58:41;102276.38;;;13.90;45.05
56681;BME280;42558;52.388;13.390;2023-05-08T09:01:17;102269.73;;;14.07;44.88
56681;BME280;42558;52.388;13.390;2023-05-08T09:03:48;102272.58;;;13.86;45.24
56681;BME280;42558;52.388;13.390;2023-05-08T09:06:19;102268.52;;;14.24;44.94
56681;BME280;42558;52.388;13.390;2023-05-08T09:08:50;102266.77;;;14.32;44.37
56681;BME280;42558;52.388;13.390;2023-05-08T09:11:24;102263.73;;;14.31;44.27
56681;BME280;42558;52.388;13.390;2023-05-08T09:13:55;102257.31;;;14.21;44.40
56681;BME280;42558;52.388;13.390;2023-05-08T09:16:26;102248.94;;;14.82;43.50
56681;BME280;42558;52.388;13.390;2023-05-08T09:18:57;102250.05;;;14.76;43.60
56681;BME280;42558;52.388;13.390;2023-05-08T09:21:27;102249.70;;;14.44;43.17
56681;BME280;42558;52.388;13.390;2023-05-08T09:23:57;102243.05;;;14.47;43.49
56681;BME280;42558;52.388;13.390;2023-05-08T09:26:33;102240.37;;;14.79;42.84
56681;BME280;42558;52.388;13.390;2023-05-08T09:29:19;102251.86;;;14.38;43.82
56681;BME280;42558;52.388;13.390;2023-05-08T09:31:52;102250.41;;;14.13;44.46
56681;BME280;42558;52.388;13.390;2023-05-08T09:34:30;102243.81;;;14.83;43.55
56681;BME280;42558;52.388;13.390;2023-05-08T09:39:34;102242.06;;;15.31;42.50
56681;BME280;42558;52.388;13.390;2023-05-08T09:42:04;102241.36;;;15.31;42.49
56681;BME280;42558;52.388;13.390;2023-05-08T09:44:50;102240.39;;;15.17;42.46
56681;BME280;42558;52.388;13.390;2023-05-08T09:47:24;102238.77;;;15.55;42.72
56681;BME280;42558;52.388;13.390;2023-05-08T09:52:35;102231.50;;;16.10;41.28
56681;BME280;42558;52.388;13.390;2023-05-08T09:55:09;102230.58;;;15.73;41.03
56681;BME280;42558;52.388;13.390;2023-05-08T09:57:54;102233.59;;;15.53;42.10
56681;BME280;42558;52.388;13.390;2023-05-08T10:00:27;102226.48;;;15.96;41.00
56681;BME280;42558;52.388;13.390;2023-05-08T10:03:01;102229.02;;;15.56;40.32
56681;BME280;42558;52.388;13.390;2023-05-08T10:05:34;102227.02;;;15.12;41.03
56681;BME280;42558;52.388;13.390;2023-05-08T10:08:21;102230.13;;;15.28;39.86
56681;BME280;42558;52.388;13.390;2023-05-08T10:10:52;102229.91;;;15.25;40.45
56681;BME280;42558;52.388;13.390;2023-05-08T10:13:22;102232.80;;;15.48;39.75
56681;BME280;42558;52.388;13.390;2023-05-08T10:15:53;102232.75;;;15.35;40.74
56681;BME280;42558;52.388;13.390;2023-05-08T10:18:28;102227.81;;;16.01;41.22
56681;BME280;42558;52.388;13.390;2023-05-08T10:21:05;102226.02;;;15.56;41.01
56681;BME280;42558;52.388;13.390;2023-05-08T10:23:39;102224.48;;;15.60;39.20
56681;BME280;42558;52.388;13.390;2023-05-08T10:26:13;102223.19;;;16.39;40.33
56681;BME280;42558;52.388;13.390;2023-05-08T10:29:12;102218.04;;;16.14;38.55
56681;BME280;42558;52.388;13.390;2023-05-08T10:31:45;102222.11;;;15.98;39.88
56681;BME280;42558;52.388;13.390;2023-05-08T10:34:21;102218.03;;;15.65;39.86
56681;BME280;42558;52.388;13.390;2023-05-08T10:36:51;102216.75;;;15.63;40.42
56681;BME280;42558;52.388;13.390;2023-05-08T10:39:23;102210.40;;;16.12;40.12
56681;BME280;42558;52.388;13.390;2023-05-08T10:41:54;102209.58;;;16.28;40.43
56681;BME280;42558;52.388;13.390;2023-05-08T10:44:28;102203.36;;;15.80;39.84
56681;BME280;42558;52.388;13.390;2023-05-08T10:47:21;102212.95;;;15.48;40.37
56681;BME280;42558;52.388;13.390;2023-05-08T10:56:15;102192.09;;;16.36;41.05
56681;BME280;42558;52.388;13.390;2023-05-08T10:58:57;102191.75;;;15.97;38.89
56681;BME280;42558;52.388;13.390;2023-05-08T11:01:27;102192.54;;;16.42;38.43
56681;BME280;42558;52.388;13.390;2023-05-08T11:03:57;102184.20;;;16.29;38.19
56681;BME280;42558;52.388;13.390;2023-05-08T11:06:47;102182.75;;;16.54;38.78
56681;BME280;42558;52.388;13.390;2023-05-08T11:12:29;102178.48;;;16.54;38.78
56681;BME280;42558;52.388;13.390;2023-05-08T11:15:02;102180.33;;;16.32;38.20
56681;BME280;42558;52.388;13.390;2023-05-08T11:17:33;102176.32;;;15.84;39.10
56681;BME280;42558;52.388;13.390;2023-05-08T11:20:06;102179.31;;;16.23;40.07
56681;BME280;42558;52.388;13.390;2023-05-08T11:22:35;102179.14;;;16.80;38.63
56681;BME280;42558;52.388;13.390;2023-05-08T11:25:10;102177.64;;;16.89;37.93
56681;BME280;42558;52.388;13.390;2023-05-08T11:30:38;102175.65;;;16.86;38.39
56681;BME280;42558;52.388;13.390;2023-05-08T11:38:25;102162.65;;;16.67;38.81
56681;BME280;42558;52.388;13.390;2023-05-08T11:46:19;102163.42;;;16.42;38.95
56681;BME280;42558;52.388;13.390;2023-05-08T11:48:57;102153.05;;;16.66;37.89
56681;BME280;42558;52.388;13.390;2023-05-08T11:51:32;102153.44;;;16.84;38.07
56681;BME280;42558;52.388;13.390;2023-05-08T11:54:04;102157.83;;;16.97;36.45
56681;BME280;42558;52.388;13.390;2023-05-08T11:56:37;102150.36;;;16.35;36.58
56681;BME280;42558;52.388;13.390;2023-05-08T11:59:08;102149.83;;;16.35;37.21
56681;BME280;42558;52.388;13.390;2023-05-08T12:01:38;102146.20;;;16.28;37.99
56681;BME280;42558;52.388;13.390;2023-05-08T12:04:10;102139.38;;;16.51;38.15
56681;BME280;42558;52.388;13.390;2023-05-08T12:06:41;102139.11;;;16.58;37.71
56681;BME280;42558;52.388;13.390;2023-05-08T12:09:14;102144.41;;;16.71;37.83
56681;BME280;42558;52.388;13.390;2023-05-08T12:11:44;102144.83;;;17.13;37.85
56681;BME280;42558;52.388;13.390;2023-05-08T12:14:16;102146.25;;;16.94;37.20
56681;BME280;42558;52.388;13.390;2023-05-08T12:16:46;102144.08;;;17.08;36.64
56681;BME280;42558;52.388;13.390;2023-05-08T12:19:16;102139.39;;;17.01;36.86
56681;BME280;42558;52.388;13.390;2023-05-08T12:21:47;102134.55;;;16.96;37.15
56681;BME280;42558;52.388;13.390;2023-05-08T12:24:17;102142.50;;;16.60;36.83
56681;BME280;42558;52.388;13.390;2023-05-08T12:26:53;102137.40;;;16.34;37.36
56681;BME280;42558;52.388;13.390;2023-05-08T12:29:23;102130.08;;;16.60;38.34
56681;BME280;42558;52.388;13.390;2023-05-08T12:31:55;102130.04;;;17.09;37.68
56681;BME280;42558;52.388;13.390;2023-05-08T12:34:26;102127.36;;;17.52;37.06
56681;BME280;42558;52.388;13.390;2023-05-08T12:37:03;102128.45;;;17.55;37.83
56681;BME280;42558;52.388;13.390;2023-05-08T12:39:35;102124.36;;;17.09;37.00
56681;BME280;42558;52.388;13.390;2023-05-08T12:42:09;102127.95;;;16.94;37.28
56681;BME280;42558;52.388;13.390;2023-05-08T12:44:52;102122.54;;;16.85;35.64
56681;BME280;42558;52.388;13.390;2023-05-08T12:47:24;102125.16;;;16.99;36.30
56681;BME280;42558;52.388;13.390;2023-05-08T12:49:56;102120.31;;;17.36;37.02
56681;BME280;42558;52.388;13.390;2023-05-08T12:52:26;102126.87;;;17.12;37.21
56681;BME280;42558;52.388;13.390;2023-05-08T12:54:57;102125.30;;;17.16;36.77
56681;BME280;42558;52.388;13.390;2023-05-08T12:57:27;102115.64;;;17.07;36.80
56681;BME280;42558;52.388;13.390;2023-05-08T13:00:03;102116.84;;;17.04;36.61
56681;BME280;42558;52.388;13.390;2023-05-08T13:02:34;102109.77;;;17.29;36.07
56681;BME280;42558;52.388;13.390;2023-05-08T13:05:19;102097.45;;;17.75;36.03
56681;BME280;42558;52.388;13.390;2023-05-08T13:07:50;102108.88;;;17.29;35.14
56681;BME280;42558;52.388;13.390;2023-05-08T13:10:19;102112.83;;;17.09;34.97
56681;BME280;42558;52.388;13.390;2023-05-08T13:12:53;102106.08;;;17.37;35.65
56681;BME280;42558;52.388;13.390;2023-05-08T13:15:22;102098.57;;;17.29;34.79
56681;BME280;42558;52.388;13.390;2023-05-08T13:17:52;102100.63;;;17.18;35.69
56681;BME280;42558;52.388;13.390;2023-05-08T13:20:22;102094.39;;;17.43;35.32
56681;BME280;42558;52.388;13.390;2023-05-08T13:22:52;102087.05;;;17.87;35.23
56681;BME280;42558;52.388;13.390;2023-05-08T13:25:22;102085.92;;;17.78;35.09
56681;BME280;42558;52.388;13.390;2023-05-08T13:27:52;102079.91;;;17.57;34.76
56681;BME280;42558;52.388;13.390;2023-05-08T13:30:22;102074.90;;;17.52;36.38
56681;BME280;42558;52.388;13.390;2023-05-08T13:32:52;102074.81;;;17.65;35.06
56681;BME280;42558;52.388;13.390;2023-05-08T13:35:23;102068.08;;;18.04;35.50
56681;BME280;42558;52.388;13.390;2023-05-08T13:37:55;102070.27;;;17.77;35.19
56681;BME280;42558;52.388;13.390;2023-05-08T13:40:26;102065.59;;;18.08;35.96
56681;BME280;42558;52.388;13.390;2023-05-08T13:42:56;102060.88;;;18.37;36.58
56681;BME280;42558;52.388;13.390;2023-05-08T13:45:26;102061.53;;;18.17;34.36
56681;BME280;42558;52.388;13.390;2023-05-08T13:47:56;102049.10;;;18.29;35.44
56681;BME280;42558;52.388;13.390;2023-05-08T13:50:26;102050.59;;;18.62;35.51
56681;BME280;42558;52.388;13.390;2023-05-08T13:52:55;102050.58;;;17.94;34.22